Time;durP1;ratioP1;P1;durP2;ratioP2;P2;SDS_P1;SDS_P2;PMS_P1;PMS_P2;Temp;Humidity;BMP_temperature;BMP_pressure;BME280_temperature;BME280_humidity;BME280_pressure;Samples;Min_cycle;Max_cycle;Signal;HPM_P1;HPM_P2
2022/08/29 00:00:55;;;;;;;13.15;7.03;;;19.90;99.90;;;;;;5030406;28;20031;-84
2022/08/29 00:03:21;;;;;;;26.80;7.43;;;20.00;99.90;;;;;;5031094;28;20041;-82
2022/08/29 00:05:46;;;;;;;12.18;7.32;;;19.90;99.90;;;;;;5028855;28;20030;-83
2022/08/29 00:08:12;;;;;;;13.73;7.03;;;19.90;99.90;;;;;;5029717;28;20085;-85
2022/08/29 00:10:40;;;;;;;16.60;6.78;;;19.90;99.90;;;;;;5032594;28;20022;-82
2022/08/29 00:13:08;;;;;;;16.95;6.53;;;19.90;99.90;;;;;;5031292;28;20032;-84
2022/08/29 00:15:35;;;;;;;13.82;7.05;;;19.90;99.90;;;;;;5023575;28;20030;-84
2022/08/29 00:18:01;;;;;;;13.15;7.15;;;19.90;99.90;;;;;;5024753;28;20090;-84
2022/08/29 00:20:31;;;;;;;12.63;7.07;;;19.90;99.90;;;;;;5037219;28;20056;-84
2022/08/29 00:22:57;;;;;;;17.35;7.72;;;19.90;99.90;;;;;;5035434;28;20052;-82
2022/08/29 00:25:24;;;;;;;13.57;7.22;;;19.90;99.90;;;;;;5030105;28;20064;-83
2022/08/29 00:27:50;;;;;;;13.45;7.38;;;19.90;99.90;;;;;;5028918;28;20038;-84
2022/08/29 00:30:18;;;;;;;17.08;7.30;;;19.90;99.90;;;;;;5028962;28;20033;-81
2022/08/29 00:32:44;;;;;;;10.88;6.82;;;19.90;99.90;;;;;;5027941;28;20025;-83
2022/08/29 00:35:15;;;;;;;14.63;7.72;;;19.90;99.90;;;;;;5025786;28;20033;-85
2022/08/29 00:37:42;;;;;;;12.98;6.88;;;19.90;99.90;;;;;;5023093;28;20034;-83
2022/08/29 00:40:12;;;;;;;13.90;7.93;;;19.90;99.90;;;;;;5023799;28;20026;-84
2022/08/29 00:42:38;;;;;;;12.02;7.28;;;19.90;99.90;;;;;;5025194;28;20033;-84
2022/08/29 00:45:06;;;;;;;10.20;6.97;;;20.00;99.90;;;;;;5024730;28;20044;-84
2022/08/29 00:47:38;;;;;;;16.63;7.22;;;19.90;99.90;;;;;;5024543;28;20018;-83
2022/08/29 00:50:07;;;;;;;15.80;7.32;;;19.90;99.90;;;;;;5024679;28;20022;-83
2022/08/29 00:52:36;;;;;;;14.10;7.40;;;19.90;99.90;;;;;;5024242;28;20079;-84
2022/08/29 00:55:09;;;;;;;14.13;7.40;;;19.90;99.90;;;;;;5026499;28;20029;-83
2022/08/29 00:57:36;;;;;;;13.80;7.47;;;19.90;99.90;;;;;;5026067;28;20034;-83
2022/08/29 01:00:05;;;;;;;10.82;7.70;;;19.90;99.90;;;;;;5025306;28;20112;-82
2022/08/29 01:02:31;;;;;;;15.55;7.40;;;19.90;99.90;;;;;;5027254;28;20029;-83
2022/08/29 01:04:59;;;;;;;18.77;7.13;;;19.90;99.90;;;;;;5028841;28;20028;-82
2022/08/29 01:07:25;;;;;;;21.27;7.25;;;19.80;99.90;;;;;;5031210;28;20045;-84
2022/08/29 01:09:51;;;;;;;12.07;7.28;;;19.80;99.90;;;;;;5032231;28;20030;-83
2022/08/29 01:12:19;;;;;;;17.50;7.20;;;19.80;99.90;;;;;;5032453;28;20034;-83
2022/08/29 01:14:51;;;;;;;15.82;6.97;;;19.80;99.90;;;;;;5031319;28;20022;-80
2022/08/29 01:17:24;;;;;;;11.93;6.47;;;19.80;99.90;;;;;;5032391;28;20048;-83
2022/08/29 01:20:07;;;;;;;15.35;7.30;;;19.90;99.90;;;;;;5031505;28;20033;-85
2022/08/29 01:22:59;;;;;;;18.58;7.10;;;19.80;99.90;;;;;;5030312;28;20036;-84
2022/08/29 01:25:31;;;;;;;17.63;7.13;;;19.80;99.90;;;;;;5032017;28;20053;-83
2022/08/29 01:28:20;;;;;;;12.60;6.80;;;19.80;99.90;;;;;;5032429;28;20089;-82
2022/08/29 01:31:02;;;;;;;12.02;7.10;;;19.80;99.90;;;;;;5032095;28;20041;-84
2022/08/29 01:33:38;;;;;;;10.43;6.75;;;19.80;99.90;;;;;;5012774;28;20034;-85
2022/08/29 01:36:04;;;;;;;14.35;6.60;;;19.90;99.90;;;;;;5030622;28;20036;-82
2022/08/29 01:38:31;;;;;;;13.35;6.60;;;19.80;99.90;;;;;;5031675;28;20026;-82
2022/08/29 01:40:58;;;;;;;16.38;6.95;;;19.80;99.90;;;;;;5030817;28;20042;-82
2022/08/29 01:43:26;;;;;;;14.45;6.72;;;19.80;99.90;;;;;;5031192;28;20045;-83
2022/08/29 01:45:52;;;;;;;13.65;6.90;;;19.80;99.90;;;;;;5030510;28;20090;-82
2022/08/29 01:48:19;;;;;;;15.05;7.15;;;19.80;99.90;;;;;;5030867;28;20026;-83
2022/08/29 01:50:46;;;;;;;17.10;6.93;;;19.80;99.90;;;;;;5029898;28;20018;-84
2022/08/29 01:53:13;;;;;;;18.52;7.30;;;19.80;99.90;;;;;;5031929;28;20029;-83
2022/08/29 01:55:39;;;;;;;14.65;7.18;;;19.80;99.90;;;;;;5031373;28;20036;-83
2022/08/29 01:58:06;;;;;;;16.25;7.15;;;19.80;99.90;;;;;;5033863;28;20014;-85
2022/08/29 02:00:34;;;;;;;15.95;7.30;;;19.80;99.90;;;;;;5033202;28;20049;-81
2022/08/29 02:03:00;;;;;;;14.65;6.93;;;19.80;99.90;;;;;;5033068;28;20054;-80
2022/08/29 02:05:28;;;;;;;16.10;7.05;;;19.80;99.90;;;;;;5033252;28;20065;-81
2022/08/29 02:07:55;;;;;;;18.50;6.80;;;19.70;99.90;;;;;;5031546;28;20053;-84
2022/08/29 02:10:22;;;;;;;14.95;7.00;;;19.80;99.90;;;;;;5032222;28;20053;-83
2022/08/29 02:12:48;;;;;;;12.15;6.18;;;19.80;99.90;;;;;;5033220;28;20018;-83
2022/08/29 02:15:17;;;;;;;13.25;6.60;;;19.80;99.90;;;;;;5033520;28;20022;-87
2022/08/29 02:17:44;;;;;;;14.50;6.82;;;19.80;99.90;;;;;;5030078;28;20034;-82
2022/08/29 02:20:11;;;;;;;15.02;7.32;;;19.80;99.90;;;;;;5065069;22;20045;-77
2022/08/29 02:22:37;;;;;;;14.55;6.38;;;19.80;99.90;;;;;;5042393;28;20083;-77
2022/08/29 02:25:40;;;;;;;11.55;6.55;;;19.80;99.90;;;;;;5043451;28;20030;-79
2022/08/29 02:27:52;;;;;;;14.48;7.00;;;19.80;99.90;;;;;;5039722;28;20033;-77
2022/08/29 02:30:22;;;;;;;18.52;6.93;;;19.80;99.90;;;;;;5019684;28;20080;-78
2022/08/29 02:32:49;;;;;;;12.60;6.40;;;19.80;99.90;;;;;;5019501;28;20238;-77
2022/08/29 02:35:15;;;;;;;11.98;6.32;;;19.80;99.90;;;;;;5017689;28;20106;-76
2022/08/29 02:37:41;;;;;;;18.25;7.15;;;19.80;99.90;;;;;;5017403;28;20112;-78
2022/08/29 02:40:08;;;;;;;13.60;7.20;;;19.80;99.90;;;;;;5015600;28;20037;-77
2022/08/29 02:42:34;;;;;;;14.32;6.80;;;19.80;99.90;;;;;;5014398;28;20030;-79
2022/08/29 02:45:00;;;;;;;13.88;6.45;;;19.80;99.90;;;;;;5014035;28;20026;-76
2022/08/29 02:47:26;;;;;;;16.58;6.50;;;19.80;99.90;;;;;;4996326;28;20030;-77
2022/08/29 02:49:51;;;;;;;13.18;6.20;;;19.80;99.90;;;;;;4995620;28;20021;-76
2022/08/29 02:52:17;;;;;;;10.63;6.18;;;19.80;99.90;;;;;;5013681;28;20030;-79
2022/08/29 02:54:43;;;;;;;15.88;6.68;;;19.80;99.90;;;;;;5013925;28;20120;-77
2022/08/29 02:57:09;;;;;;;12.18;6.50;;;19.80;99.90;;;;;;4996216;28;20057;-78
2022/08/29 02:59:35;;;;;;;10.15;6.45;;;19.80;99.90;;;;;;5015854;28;20148;-76
2022/08/29 03:02:01;;;;;;;14.52;6.80;;;19.80;99.90;;;;;;5016199;28;20044;-78
2022/08/29 03:04:26;;;;;;;11.32;6.47;;;19.70;99.90;;;;;;5016922;28;20025;-76
2022/08/29 03:06:52;;;;;;;12.43;6.63;;;19.70;99.90;;;;;;5014704;28;20450;-76
2022/08/29 03:09:18;;;;;;;16.65;7.28;;;19.70;99.90;;;;;;4997219;28;20018;-77
2022/08/29 03:11:44;;;;;;;13.02;6.80;;;19.70;99.90;;;;;;5015896;28;20592;-78
2022/08/29 03:14:10;;;;;;;18.98;7.30;;;19.70;99.90;;;;;;4997809;28;20092;-77
2022/08/29 03:16:35;;;;;;;17.52;7.40;;;19.70;99.90;;;;;;4996445;28;20029;-76
2022/08/29 03:19:01;;;;;;;17.50;7.13;;;19.70;99.90;;;;;;5013844;28;20068;-78
2022/08/29 03:21:27;;;;;;;9.88;6.55;;;19.70;99.90;;;;;;5015224;28;20057;-78
2022/08/29 03:23:55;;;;;;;14.57;6.45;;;19.60;99.90;;;;;;5000825;28;20466;-78
2022/08/29 03:26:22;;;;;;;15.35;7.43;;;19.70;99.90;;;;;;5001444;28;20037;-77
2022/08/29 03:28:48;;;;;;;14.95;7.00;;;19.70;99.90;;;;;;5018300;28;20080;-77
2022/08/29 03:31:14;;;;;;;11.88;6.40;;;19.70;99.90;;;;;;5014190;28;20026;-77
2022/08/29 03:33:40;;;;;;;14.50;6.35;;;19.70;99.90;;;;;;4996352;28;20027;-76
2022/08/29 03:36:08;;;;;;;15.88;6.88;;;19.60;99.90;;;;;;5015215;28;20025;-76
2022/08/29 03:38:36;;;;;;;13.13;6.72;;;19.60;99.90;;;;;;5017446;28;20022;-77
2022/08/29 03:41:03;;;;;;;22.25;6.57;;;19.60;99.90;;;;;;5000881;28;20044;-77
2022/08/29 03:43:29;;;;;;;16.10;6.40;;;19.60;99.90;;;;;;5018933;28;20109;-77
2022/08/29 03:45:55;;;;;;;13.60;6.03;;;19.70;99.90;;;;;;5019263;28;20037;-75
2022/08/29 03:48:20;;;;;;;15.48;6.50;;;19.60;99.90;;;;;;5000084;28;20026;-77
2022/08/29 03:50:46;;;;;;;13.85;6.78;;;19.60;99.90;;;;;;5015989;28;20083;-78
2022/08/29 03:53:12;;;;;;;15.43;5.68;;;19.60;99.90;;;;;;5014148;28;20523;-75
2022/08/29 03:55:38;;;;;;;16.65;6.03;;;19.60;99.90;;;;;;5016452;28;20116;-78
2022/08/29 03:58:04;;;;;;;15.10;6.20;;;19.60;99.90;;;;;;5016364;28;20030;-77
2022/08/29 04:00:30;;;;;;;12.63;6.10;;;19.60;99.90;;;;;;5018791;28;20030;-76
2022/08/29 04:02:57;;;;;;;10.73;5.30;;;19.60;99.90;;;;;;5001606;28;20092;-77
2022/08/29 04:05:22;;;;;;;13.43;6.18;;;19.60;99.90;;;;;;5022639;28;20034;-77
2022/08/29 04:07:54;;;;;;;13.77;6.22;;;19.60;99.90;;;;;;5011271;28;20041;-77
2022/08/29 04:10:25;;;;;;;12.88;6.22;;;19.60;99.90;;;;;;5031022;28;20047;-77
2022/08/29 04:12:51;;;;;;;17.60;6.38;;;19.60;99.90;;;;;;5031027;28;20054;-77
2022/08/29 04:15:17;;;;;;;15.15;6.45;;;19.60;99.90;;;;;;4987504;28;20030;-78
2022/08/29 04:17:43;;;;;;;20.90;6.50;;;19.60;99.90;;;;;;5022067;28;20037;-77
2022/08/29 04:20:11;;;;;;;12.02;5.72;;;19.60;99.90;;;;;;4989236;28;20038;-78
2022/08/29 04:22:39;;;;;;;10.25;6.20;;;19.60;99.90;;;;;;5001121;28;20034;-78
2022/08/29 04:25:08;;;;;;;12.57;5.80;;;19.70;99.90;;;;;;5017958;28;20439;-79
2022/08/29 04:27:35;;;;;;;14.40;5.72;;;19.60;99.90;;;;;;5018053;28;20026;-77
2022/08/29 04:30:05;;;;;;;12.32;5.45;;;19.70;99.90;;;;;;5018331;28;20026;-78
2022/08/29 04:32:31;;;;;;;11.95;5.65;;;19.70;99.90;;;;;;5017412;28;20033;-77
2022/08/29 04:34:57;;;;;;;15.65;6.07;;;19.70;99.90;;;;;;5021768;28;20034;-77
2022/08/29 04:37:23;;;;;;;15.32;5.93;;;19.70;99.90;;;;;;5023184;28;20030;-76
2022/08/29 04:39:49;;;;;;;19.02;6.45;;;19.70;99.90;;;;;;5021878;28;20026;-77
2022/08/29 04:42:17;;;;;;;11.02;5.30;;;19.70;99.90;;;;;;5005272;28;20040;-77
2022/08/29 04:44:43;;;;;;;13.63;6.20;;;19.70;99.90;;;;;;5022919;28;20030;-77
2022/08/29 04:47:09;;;;;;;15.38;6.22;;;19.70;99.90;;;;;;5022015;28;20061;-76
2022/08/29 04:49:35;;;;;;;12.45;5.30;;;19.70;99.90;;;;;;5019025;28;20029;-76
2022/08/29 04:52:01;;;;;;;15.27;6.03;;;19.80;99.90;;;;;;5017000;28;20030;-79
2022/08/29 04:54:27;;;;;;;14.73;5.85;;;19.70;99.90;;;;;;5017436;28;20036;-79
2022/08/29 04:56:53;;;;;;;24.48;6.00;;;19.70;99.90;;;;;;5017588;28;20057;-76
2022/08/29 04:59:18;;;;;;;18.85;6.05;;;19.80;99.90;;;;;;5020919;28;20026;-77
2022/08/29 05:01:45;;;;;;;12.77;5.70;;;19.80;99.90;;;;;;5018029;28;20418;-77
2022/08/29 05:04:11;;;;;;;16.30;4.88;;;19.80;99.90;;;;;;5000574;28;20036;-78
2022/08/29 05:06:36;;;;;;;11.75;5.07;;;19.80;99.90;;;;;;5017716;28;20665;-78
2022/08/29 05:09:03;;;;;;;10.05;5.45;;;19.90;99.90;;;;;;5000378;28;20108;-79
2022/08/29 05:11:30;;;;;;;16.58;5.93;;;19.90;99.90;;;;;;5024395;28;20098;-77
2022/08/29 05:13:57;;;;;;;14.23;5.95;;;19.90;99.90;;;;;;5017410;28;20014;-77
2022/08/29 05:16:23;;;;;;;12.95;5.95;;;19.90;99.90;;;;;;5024968;28;20049;-77
2022/08/29 05:18:49;;;;;;;12.85;5.20;;;19.80;99.90;;;;;;5023960;28;20449;-79
2022/08/29 05:21:34;;;;;;;8.60;5.10;;;19.80;99.90;;;;;;5002152;28;20026;-78
2022/08/29 05:24:00;;;;;;;;;;;19.80;99.90;;;;;;5008026;28;20038;-78
2022/08/29 05:26:31;;;;;;;15.73;5.70;;;19.80;99.90;;;;;;5006441;28;19912;-79
2022/08/29 05:28:57;;;;;;;10.68;5.30;;;19.90;99.90;;;;;;4992470;28;20038;-79
2022/08/29 05:31:23;;;;;;;14.30;5.80;;;19.90;99.90;;;;;;4991198;28;20085;-78
2022/08/29 05:33:50;;;;;;;19.13;5.93;;;19.90;99.90;;;;;;5022177;28;20041;-78
2022/08/29 05:36:16;;;;;;;13.80;5.70;;;19.90;99.90;;;;;;5020012;28;20438;-78
2022/08/29 05:38:42;;;;;;;22.50;5.75;;;19.80;99.90;;;;;;5002540;28;20108;-80
2022/08/29 05:41:08;;;;;;;17.75;5.32;;;19.90;99.90;;;;;;4993064;28;20107;-77
2022/08/29 05:43:34;;;;;;;15.57;5.50;;;19.90;99.90;;;;;;4992791;28;20026;-77
2022/08/29 05:46:02;;;;;;;12.25;5.07;;;19.90;99.90;;;;;;5006604;28;20022;-78
2022/08/29 05:48:29;;;;;;;25.13;5.80;;;19.90;99.90;;;;;;5001685;28;20034;-79
2022/08/29 05:50:56;;;;;;;12.88;5.03;;;19.90;99.90;;;;;;5001075;28;20505;-78
2022/08/29 05:53:22;;;;;;;19.73;5.82;;;20.00;99.90;;;;;;5008596;28;20513;-78
2022/08/29 05:55:48;;;;;;;16.58;5.13;;;20.00;99.90;;;;;;4990400;28;20018;-78
2022/08/29 05:58:14;;;;;;;17.42;5.25;;;20.00;99.90;;;;;;5010230;28;20027;-77
2022/08/29 06:00:41;;;;;;;12.73;5.43;;;20.10;99.90;;;;;;5015159;28;20605;-80
2022/08/29 06:03:08;;;;;;;13.05;6.10;;;20.10;99.90;;;;;;4994981;28;20052;-78
2022/08/29 06:05:34;;;;;;;12.82;5.75;;;20.10;99.90;;;;;;5008336;28;20041;-76
2022/08/29 06:08:00;;;;;;;21.48;6.53;;;20.10;99.90;;;;;;5009864;28;20045;-78
2022/08/29 06:10:26;;;;;;;17.23;6.07;;;20.10;99.90;;;;;;5016244;28;20057;-78
2022/08/29 06:12:52;;;;;;;16.80;5.95;;;20.20;99.90;;;;;;5012404;28;20178;-79
2022/08/29 06:15:18;;;;;;;19.40;5.40;;;20.30;99.90;;;;;;5006795;28;20084;-78
2022/08/29 06:17:44;;;;;;;19.30;5.95;;;20.20;99.90;;;;;;5005699;28;20032;-78
2022/08/29 06:20:10;;;;;;;13.35;5.45;;;20.20;99.90;;;;;;5007335;28;20110;-79
2022/08/29 06:22:38;;;;;;;13.23;5.97;;;20.20;99.90;;;;;;5012813;28;20034;-78
2022/08/29 06:25:05;;;;;;;17.35;6.05;;;20.20;99.90;;;;;;5015024;28;20072;-81
2022/08/29 06:27:31;;;;;;;13.60;5.47;;;20.20;99.90;;;;;;5014143;28;20061;-78
2022/08/29 06:29:57;;;;;;;13.68;6.05;;;20.20;99.90;;;;;;5021788;28;20033;-77
2022/08/29 06:32:23;;;;;;;13.55;5.90;;;20.20;99.90;;;;;;5016683;28;20037;-77
2022/08/29 06:34:49;;;;;;;14.60;5.60;;;20.20;99.90;;;;;;5017573;28;20033;-78
2022/08/29 06:37:15;;;;;;;11.60;5.78;;;20.30;99.90;;;;;;5026104;28;20054;-79
2022/08/29 06:39:41;;;;;;;12.35;5.22;;;20.50;99.90;;;;;;4997971;28;20038;-78
2022/08/29 06:42:07;;;;;;;12.93;5.28;;;20.60;99.90;;;;;;5006375;28;20042;-78
2022/08/29 06:44:33;;;;;;;15.85;5.43;;;20.70;99.90;;;;;;4987233;28;20126;-78
2022/08/29 06:46:59;;;;;;;15.02;5.50;;;20.80;99.90;;;;;;4986762;28;20406;-78
2022/08/29 06:49:26;;;;;;;19.75;6.35;;;21.00;99.90;;;;;;5002389;28;20022;-78
2022/08/29 06:51:52;;;;;;;10.90;5.47;;;21.10;99.90;;;;;;4985239;28;20037;-77
2022/08/29 06:54:21;;;;;;;13.80;5.95;;;21.00;99.90;;;;;;5012551;28;20037;-80
2022/08/29 06:56:49;;;;;;;13.32;5.63;;;21.00;99.90;;;;;;4983654;28;20039;-78
2022/08/29 06:59:15;;;;;;;13.80;5.82;;;21.00;99.90;;;;;;5006920;28;20196;-81
2022/08/29 07:01:42;;;;;;;16.45;5.45;;;21.10;99.90;;;;;;5016083;28;20022;-80
2022/08/29 07:04:09;;;;;;;12.63;6.10;;;21.10;99.90;;;;;;5016956;28;20033;-79
2022/08/29 07:06:36;;;;;;;17.88;6.40;;;21.00;99.90;;;;;;5017421;28;20081;-79
2022/08/29 07:09:05;;;;;;;13.93;5.60;;;20.90;99.90;;;;;;4996867;28;20029;-78
2022/08/29 07:11:32;;;;;;;13.43;5.10;;;21.00;99.90;;;;;;4997733;28;20030;-79
2022/08/29 07:14:00;;;;;;;10.57;5.38;;;20.90;99.90;;;;;;4996823;28;20021;-78
2022/08/29 07:16:28;;;;;;;15.82;6.25;;;21.00;99.90;;;;;;4997356;28;20117;-79
2022/08/29 07:18:54;;;;;;;18.02;5.85;;;21.00;99.90;;;;;;5002261;28;20060;-79
2022/08/29 07:21:23;;;;;;;12.48;5.07;;;21.00;99.90;;;;;;4997955;28;20030;-78
2022/08/29 07:23:50;;;;;;;16.00;5.80;;;21.10;99.90;;;;;;5005131;28;20358;-78
2022/08/29 07:26:22;;;;;;;12.57;4.90;;;21.20;99.90;;;;;;5016729;28;20029;-79
2022/08/29 07:28:50;;;;;;;17.98;6.20;;;21.50;99.90;;;;;;4998445;28;20042;-79
2022/08/29 07:31:16;;;;;;;24.15;5.38;;;21.70;99.90;;;;;;5015780;28;20029;-78
2022/08/29 07:33:42;;;;;;;12.48;5.40;;;21.90;99.90;;;;;;4998067;28;20022;-77
2022/08/29 07:36:09;;;;;;;13.38;5.53;;;22.00;99.90;;;;;;5015624;28;20484;-78
2022/08/29 07:38:36;;;;;;;14.55;6.07;;;21.90;99.90;;;;;;5000917;28;20030;-79
2022/08/29 07:41:08;;;;;;;13.73;6.22;;;21.80;99.90;;;;;;5023597;28;20033;-79
2022/08/29 07:43:35;;;;;;;11.82;5.63;;;21.80;99.90;;;;;;5003425;28;20514;-79
2022/08/29 07:46:15;;;;;;;11.85;5.70;;;21.80;99.90;;;;;;5020182;28;20093;-79
2022/08/29 07:48:42;;;;;;;15.15;5.50;;;21.90;99.90;;;;;;5015035;28;20030;-78
2022/08/29 07:51:11;;;;;;;20.40;6.75;;;21.90;99.90;;;;;;5019086;28;20033;-79
2022/08/29 07:53:37;;;;;;;11.82;5.15;;;22.10;99.90;;;;;;5008713;28;20029;-78
2022/08/29 07:56:08;;;;;;;12.82;5.10;;;22.20;99.90;;;;;;5001474;28;20014;-78
2022/08/29 07:58:35;;;;;;;12.70;5.10;;;22.40;99.90;;;;;;4997864;28;20034;-78
2022/08/29 08:01:02;;;;;;;13.10;5.55;;;22.50;99.90;;;;;;5010256;28;20038;-77
2022/08/29 08:03:30;;;;;;;8.18;4.80;;;22.50;99.90;;;;;;5024956;28;20121;-77
2022/08/29 08:05:56;;;;;;;14.90;5.15;;;22.60;99.90;;;;;;5031902;28;20030;-77
2022/08/29 08:08:21;;;;;;;13.77;5.18;;;22.70;99.90;;;;;;5030702;28;20046;-76
2022/08/29 08:10:47;;;;;;;13.05;5.50;;;22.60;99.90;;;;;;5025100;28;20045;-76
2022/08/29 08:13:13;;;;;;;12.25;5.28;;;22.50;99.90;;;;;;4993843;28;20057;-78
2022/08/29 08:15:39;;;;;;;15.02;5.75;;;22.30;99.90;;;;;;5011050;28;20018;-77
2022/08/29 08:18:06;;;;;;;11.15;5.22;;;22.20;99.90;;;;;;4994088;28;20045;-77
2022/08/29 08:20:32;;;;;;;11.88;4.90;;;22.10;99.90;;;;;;5076178;23;20037;-80
2022/08/29 08:22:58;;;;;;;11.82;5.20;;;22.00;99.90;;;;;;5033305;28;20044;-86
2022/08/29 08:25:25;;;;;;;12.15;4.63;;;21.90;99.90;;;;;;5037590;28;20030;-84
2022/08/29 08:27:51;;;;;;;13.90;4.90;;;21.90;99.90;;;;;;5039801;28;20046;-83
2022/08/29 08:30:17;;;;;;;11.13;4.80;;;22.00;99.90;;;;;;5037488;28;20062;-83
2022/08/29 08:32:44;;;;;;;11.70;4.47;;;22.20;99.90;;;;;;5040521;28;20018;-88
2022/08/29 08:35:11;;;;;;;15.65;5.30;;;22.40;99.90;;;;;;5038872;28;20034;-87
2022/08/29 08:37:38;;;;;;;13.55;5.00;;;22.70;99.90;;;;;;5039116;28;20017;-88
2022/08/29 08:40:05;;;;;;;14.85;4.82;;;23.00;99.90;;;;;;5039755;28;20034;-87
2022/08/29 08:42:41;;;;;;;15.15;4.97;;;23.30;99.90;;;;;;5039031;28;20026;-87
2022/08/29 08:45:09;;;;;;;13.57;5.60;;;23.40;99.90;;;;;;5034686;28;20085;-88
2022/08/29 08:47:50;;;;;;;12.63;4.82;;;23.50;99.90;;;;;;5016921;28;20089;-88
2022/08/29 08:50:35;;;;;;;12.10;4.95;;;23.50;99.90;;;;;;5033442;28;20033;-89
2022/08/29 08:53:35;;;;;;;8.90;4.93;;;23.60;99.90;;;;;;5035819;28;20171;-88
2022/08/29 08:56:10;;;;;;;10.77;5.00;;;23.60;99.90;;;;;;5030150;28;20049;-89
2022/08/29 08:58:48;;;;;;;14.85;5.57;;;23.70;99.90;;;;;;5016759;28;20042;-91
2022/08/29 09:01:19;;;;;;;13.07;4.13;;;23.70;99.90;;;;;;5033352;28;20041;-88
2022/08/29 09:04:16;;;;;;;15.23;4.40;;;23.80;99.90;;;;;;5015942;28;20082;-89
2022/08/29 09:07:00;;;;;;;9.88;4.57;;;23.70;99.90;;;;;;5015865;28;20500;-89
2022/08/29 09:09:37;;;;;;;10.60;4.72;;;23.90;99.90;;;;;;5013604;28;20034;-89
2022/08/29 09:12:09;;;;;;;14.10;4.65;;;24.10;99.90;;;;;;4998521;28;20612;-89
2022/08/29 09:14:50;;;;;;;11.77;5.30;;;24.20;99.90;;;;;;5013560;28;20090;-89
2022/08/29 09:17:41;;;;;;;12.90;4.63;;;24.40;99.90;;;;;;5015205;28;20031;-89
2022/08/29 09:20:14;;;;;;;12.88;4.15;;;24.70;99.90;;;;;;5015245;28;20029;-89
2022/08/29 09:22:44;;;;;;;13.23;4.63;;;25.40;99.90;;;;;;5016996;28;20318;-88
2022/08/29 09:25:12;;;;;;;11.93;4.15;;;26.10;99.90;;;;;;4997298;28;20031;-89
2022/08/29 09:27:38;;;;;;;12.70;3.97;;;26.70;99.90;;;;;;4996209;28;20030;-91
2022/08/29 09:30:13;;;;;;;8.75;4.25;;;27.20;99.90;;;;;;4996287;28;20118;-89
2022/08/29 09:32:51;;;;;;;10.25;4.18;;;28.10;99.90;;;;;;5031147;28;20053;-89
2022/08/29 09:35:48;;;;;;;13.80;4.15;;;28.00;99.90;;;;;;5035575;28;20072;-86
2022/08/29 09:38:22;;;;;;;11.50;4.03;;;28.30;99.90;;;;;;5030659;28;20065;-87
2022/08/29 09:41:02;;;;;;;10.23;3.58;;;29.80;98.80;;;;;;5034699;28;20115;-87
2022/08/29 09:43:57;;;;;;;11.27;3.80;;;30.60;97.40;;;;;;5033112;28;20025;-89
2022/08/29 09:46:26;;;;;;;7.55;3.50;;;31.10;95.40;;;;;;5032759;28;20026;-90
2022/08/29 09:48:54;;;;;;;6.90;3.78;;;31.60;94.40;;;;;;5012430;28;20026;-88
2022/08/29 09:51:23;;;;;;;6.90;2.95;;;32.30;93.20;;;;;;5034672;28;20030;-88
2022/08/29 09:53:51;;;;;;;7.40;3.05;;;33.60;91.30;;;;;;5016922;28;20054;-88
2022/08/29 09:56:24;;;;;;;18.60;4.40;;;33.30;90.40;;;;;;5032260;28;20037;-89
2022/08/29 09:59:09;;;;;;;9.95;3.20;;;33.30;90.40;;;;;;5015759;28;20041;-88
2022/08/29 10:01:38;;;;;;;10.18;3.17;;;34.50;87.60;;;;;;5032025;28;20034;-87
2022/08/29 10:04:10;;;;;;;8.60;3.40;;;35.50;83.00;;;;;;5014713;28;20037;-86
2022/08/29 10:06:39;;;;;;;10.07;3.88;;;36.30;79.60;;;;;;5033881;28;20034;-90
2022/08/29 10:09:25;;;;;;;6.53;3.35;;;37.20;77.20;;;;;;5034274;28;20037;-90
2022/08/29 10:12:19;;;;;;;7.07;3.53;;;37.90;74.50;;;;;;5033317;28;20065;-91
2022/08/29 10:14:58;;;;;;;6.70;3.33;;;38.60;72.10;;;;;;5038670;28;20029;-88
2022/08/29 10:20:16;;;;;;;7.68;2.78;;;38.90;68.90;;;;;;5037748;28;20105;-85
2022/08/29 10:23:11;;;;;;;7.45;3.10;;;38.40;69.20;;;;;;5029264;28;20022;-86
2022/08/29 10:25:53;;;;;;;5.95;2.88;;;39.30;67.40;;;;;;5014738;28;20089;-88
2022/08/29 10:28:48;;;;;;;8.38;3.33;;;39.20;66.60;;;;;;5015564;28;20022;-88
2022/08/29 10:31:36;;;;;;;8.02;2.95;;;39.60;65.70;;;;;;5016530;28;20103;-85
2022/08/29 10:34:52;;;;;;;8.55;3.60;;;40.00;64.60;;;;;;5016907;28;20041;-89
2022/08/29 10:38:07;;;;;;;6.93;3.00;;;40.60;63.10;;;;;;5001847;28;20038;-88
2022/08/29 10:41:06;;;;;;;6.95;2.95;;;40.40;61.80;;;;;;5014587;28;20011;-89
2022/08/29 10:44:41;;;;;;;5.22;2.85;;;40.70;61.00;;;;;;4989724;28;20061;-89
2022/08/29 10:47:37;;;;;;;8.35;2.92;;;40.90;59.30;;;;;;4956455;29;20060;-86
2022/08/29 10:50:28;;;;;;;7.40;2.75;;;40.70;59.00;;;;;;4949692;28;20049;-89
2022/08/29 10:53:05;;;;;;;4.25;2.45;;;40.60;58.60;;;;;;4997958;28;20023;-89
2022/08/29 10:55:53;;;;;;;7.60;2.53;;;41.70;57.50;;;;;;5014600;28;20070;-86
2022/08/29 10:58:44;;;;;;;5.30;2.88;;;42.20;56.90;;;;;;5014091;28;20038;-86
2022/08/29 11:01:36;;;;;;;5.70;2.55;;;42.10;56.10;;;;;;5000077;28;20055;-88
2022/08/29 11:04:40;;;;;;;4.43;2.15;;;41.80;56.10;;;;;;4997052;28;20031;-88
2022/08/29 11:07:24;;;;;;;3.47;2.70;;;41.70;55.50;;;;;;4998875;28;20129;-88
2022/08/29 11:10:02;;;;;;;5.07;2.35;;;40.80;55.90;;;;;;5015337;28;20037;-88
2022/08/29 11:12:35;;;;;;;5.50;2.90;;;40.80;55.80;;;;;;5017592;28;20045;-86
2022/08/29 11:15:06;;;;;;;2.90;1.80;;;40.50;54.80;;;;;;5016047;28;20011;-87
2022/08/29 11:17:48;;;;;;;5.82;2.00;;;40.00;53.40;;;;;;5016925;28;20046;-88
2022/08/29 11:20:34;;;;;;;3.92;2.20;;;40.40;53.50;;;;;;5000384;28;20026;-90
2022/08/29 11:23:14;;;;;;;4.15;2.05;;;40.70;54.20;;;;;;5016034;28;20029;-87
2022/08/29 11:25:47;;;;;;;5.35;2.15;;;41.30;53.80;;;;;;5016125;28;20018;-85
2022/08/29 11:28:42;;;;;;;4.55;2.25;;;41.60;53.20;;;;;;5016826;28;20072;-86
2022/08/29 11:31:20;;;;;;;3.58;2.00;;;41.70;53.10;;;;;;5016871;28;20014;-87
2022/08/29 11:34:19;;;;;;;3.58;2.30;;;41.10;53.40;;;;;;5017154;28;20073;-87
2022/08/29 11:36:58;;;;;;;4.68;2.17;;;41.00;52.60;;;;;;5015933;28;20114;-88
2022/08/29 11:39:55;;;;;;;;;;;;;;;;;;;;;
2022/08/29 11:42:38;;;;;;;4.95;2.10;;;41.00;52.60;;;;;;5013988;28;20038;-87
2022/08/29 11:45:16;;;;;;;4.88;2.35;;;41.70;52.50;;;;;;5016646;28;20045;-87
2022/08/29 11:47:45;;;;;;;4.15;2.10;;;42.30;51.20;;;;;;5016178;28;20040;-85
2022/08/29 11:50:17;;;;;;;5.28;2.47;;;42.20;50.20;;;;;;5000080;28;20010;-87
2022/08/29 11:52:54;;;;;;;5.47;2.03;;;42.40;50.00;;;;;;5016292;28;20034;-87
2022/08/29 11:55:29;;;;;;;3.40;2.05;;;41.90;50.50;;;;;;5015816;28;20042;-88
2022/08/29 11:57:59;;;;;;;7.88;2.50;;;42.20;50.20;;;;;;4997350;28;20073;-86
2022/08/29 12:00:46;;;;;;;3.38;1.95;;;42.30;50.30;;;;;;4991890;28;20513;-87
2022/08/29 12:03:31;;;;;;;3.53;2.03;;;41.80;48.90;;;;;;4971364;28;20497;-86
2022/08/29 12:06:28;;;;;;;4.97;1.90;;;41.70;49.10;;;;;;4989666;28;20050;-89
2022/08/29 12:09:23;;;;;;;4.47;2.20;;;42.30;49.10;;;;;;4949202;28;20054;-86
2022/08/29 12:12:19;;;;;;;6.60;2.00;;;42.90;48.70;;;;;;4966885;28;20058;-87
2022/08/29 12:14:49;;;;;;;4.22;1.80;;;43.40;48.00;;;;;;5008568;28;20463;-90
2022/08/29 12:17:24;;;;;;;5.25;2.00;;;43.30;47.20;;;;;;5008110;28;20061;-87
2022/08/29 12:20:15;;;;;;;5.15;1.90;;;42.80;47.50;;;;;;4997552;28;20099;-87
2022/08/29 12:22:55;;;;;;;5.20;2.38;;;42.30;48.30;;;;;;4991977;28;20041;-88
2022/08/29 12:25:41;;;;;;;6.40;2.10;;;42.40;48.80;;;;;;5003399;28;20034;-89
2022/08/29 12:28:44;;;;;;;4.97;2.00;;;42.20;48.90;;;;;;5010350;28;20017;-88
2022/08/29 12:31:29;;;;;;;2.78;2.00;;;42.20;49.00;;;;;;4988183;28;20065;-86
2022/08/29 12:34:16;;;;;;;6.63;2.13;;;42.90;48.30;;;;;;5008833;28;20030;-89
2022/08/29 12:37:05;;;;;;;3.45;1.95;;;41.80;47.70;;;;;;4995636;28;20038;-88
2022/08/29 12:40:02;;;;;;;3.03;2.08;;;41.70;47.50;;;;;;4995425;28;20054;-85
2022/08/29 12:42:43;;;;;;;2.83;1.70;;;41.20;47.70;;;;;;4998607;28;20054;-87
2022/08/29 12:45:30;;;;;;;6.38;2.00;;;42.00;47.20;;;;;;4991441;28;20062;-88
2022/08/29 12:48:10;;;;;;;4.25;1.83;;;42.80;47.10;;;;;;5009426;28;20030;-85
2022/08/29 12:50:44;;;;;;;4.50;2.08;;;42.90;48.00;;;;;;5032668;28;20046;-87
2022/08/29 12:53:22;;;;;;;7.63;2.40;;;43.40;47.50;;;;;;5030200;28;20018;-87
2022/08/29 12:55:57;;;;;;;3.90;2.10;;;43.40;47.60;;;;;;5031164;28;20054;-87
2022/08/29 12:58:52;;;;;;;3.65;2.05;;;43.00;46.80;;;;;;5035299;28;20057;-87
2022/08/29 13:01:32;;;;;;;4.15;2.00;;;42.80;46.90;;;;;;5033688;28;20065;-87
2022/08/29 13:04:03;;;;;;;5.50;2.00;;;42.80;46.50;;;;;;5027743;28;20037;-86
2022/08/29 13:06:31;;;;;;;5.75;2.25;;;42.90;46.60;;;;;;5027490;28;20029;-87
2022/08/29 13:08:57;;;;;;;5.93;2.35;;;42.60;46.30;;;;;;5029251;28;20018;-88